createdAt,value
2023-11-20T00:01:10.201Z,44.15
2023-11-20T00:03:36.870Z,40.30
2023-11-20T00:06:03.659Z,37.78
2023-11-20T00:08:30.122Z,42.95
2023-11-20T00:10:56.554Z,39.08
2023-11-20T00:13:23.002Z,43.92
2023-11-20T00:15:49.965Z,40.40
2023-11-20T00:18:16.530Z,38.40
2023-11-20T00:20:42.973Z,41.15
2023-11-20T00:23:09.452Z,36.45
2023-11-20T00:25:35.948Z,39.95
2023-11-20T00:28:02.401Z,39.45
2023-11-20T00:30:29.010Z,41.85
2023-11-20T00:32:55.609Z,48.25
2023-11-20T00:35:22.214Z,46.17
2023-11-20T00:37:48.659Z,43.30
2023-11-20T00:40:15.277Z,48.30
2023-11-20T00:42:42.167Z,45.55
2023-11-20T00:45:08.870Z,43.58
2023-11-20T00:47:35.332Z,43.80
2023-11-20T00:50:01.787Z,43.67
2023-11-20T00:52:31.081Z,44.30
2023-11-20T00:54:58.478Z,47.88
2023-11-20T00:57:24.974Z,46.97
2023-11-20T00:59:51.454Z,53.92
2023-11-20T01:02:17.950Z,42.13
2023-11-20T01:04:44.399Z,43.05
2023-11-20T01:07:10.935Z,46.28
2023-11-20T01:09:37.424Z,41.38
2023-11-20T01:12:04.255Z,47.08
2023-11-20T01:14:30.781Z,49.47
2023-11-20T01:16:57.557Z,48.97
2023-11-20T01:19:24.052Z,44.92
2023-11-20T01:21:50.644Z,46.67
2023-11-20T01:24:17.111Z,45.67
2023-11-20T01:26:43.570Z,48.38
2023-11-20T01:29:10.020Z,45.97
2023-11-20T01:31:36.541Z,53.58
2023-11-20T01:34:03.102Z,53.50
2023-11-20T01:36:29.673Z,45.97
2023-11-20T01:38:56.159Z,48.17
2023-11-20T01:41:22.689Z,46.05
2023-11-20T01:43:49.151Z,46.25
2023-11-20T01:46:16.586Z,49.03
2023-11-20T01:48:46.164Z,49.08
2023-11-20T01:51:13.466Z,50.33
2023-11-20T01:53:42.536Z,50.92
2023-11-20T01:56:11.933Z,49.58
2023-11-20T01:58:38.557Z,47.35
2023-11-20T02:01:05.746Z,59.17
2023-11-20T02:03:35.765Z,43.08
2023-11-20T02:06:02.331Z,47.08
2023-11-20T02:08:31.617Z,46.85
2023-11-20T02:11:03.137Z,48.97
2023-11-20T02:13:30.991Z,49.75
2023-11-20T02:15:57.704Z,47.20
2023-11-20T02:18:35.320Z,42.47
2023-11-20T02:21:03.064Z,45.92
2023-11-20T02:23:30.116Z,47.45
2023-11-20T02:26:02.735Z,46.78
2023-11-20T02:28:39.059Z,43.30
2023-11-20T02:31:06.001Z,41.25
2023-11-20T02:33:41.328Z,41.50
2023-11-20T02:36:08.142Z,40.85
2023-11-20T02:38:35.089Z,44.83
2023-11-20T02:41:01.745Z,46.17
2023-11-20T02:43:28.417Z,45.63
2023-11-20T02:45:56.730Z,41.42
2023-11-20T02:48:24.263Z,43.50
2023-11-20T02:50:50.772Z,45.08
2023-11-20T02:53:17.289Z,40.70
2023-11-20T02:55:43.764Z,42.65
2023-11-20T02:58:10.321Z,46.53
2023-11-20T03:00:39.201Z,43.38
2023-11-20T03:03:07.468Z,49.40
2023-11-20T03:05:35.752Z,45.97
2023-11-20T03:08:02.608Z,47.30
2023-11-20T03:10:29.153Z,48.30
2023-11-20T03:12:56.111Z,46.78
2023-11-20T03:15:22.729Z,44.90
2023-11-20T03:17:50.406Z,42.47
2023-11-20T03:20:17.345Z,40.90
2023-11-20T03:22:43.864Z,49.80
2023-11-20T03:25:10.627Z,45.75
2023-11-20T03:27:37.151Z,44.40
2023-11-20T03:30:03.982Z,43.05
2023-11-20T03:32:30.485Z,41.45
2023-11-20T03:34:56.938Z,49.80
2023-11-20T03:37:23.384Z,44.20
2023-11-20T03:39:49.866Z,45.10
2023-11-20T03:42:16.422Z,42.72
2023-11-20T03:44:42.857Z,44.78
2023-11-20T03:47:10.378Z,41.67
2023-11-20T03:49:36.825Z,48.53
2023-11-20T03:52:03.955Z,43.03
2023-11-20T03:54:30.431Z,43.25
2023-11-20T03:56:56.889Z,46.92
2023-11-20T03:59:23.346Z,44.03
2023-11-20T04:01:51.274Z,45.50
2023-11-20T04:04:17.897Z,58.10
2023-11-20T04:06:44.862Z,46.53
2023-11-20T04:09:11.460Z,43.08
2023-11-20T04:11:37.957Z,48.53
2023-11-20T04:14:04.886Z,44.75
2023-11-20T04:16:32.050Z,48.30
2023-11-20T04:18:58.922Z,46.72
2023-11-20T04:21:26.567Z,41.90
2023-11-20T04:23:53.403Z,46.35
2023-11-20T04:26:19.928Z,46.15
2023-11-20T04:28:46.594Z,52.15
2023-11-20T04:31:13.075Z,45.28
2023-11-20T04:33:43.822Z,45.65
2023-11-20T04:36:13.719Z,46.90
2023-11-20T04:38:40.890Z,44.28
2023-11-20T04:41:07.393Z,44.92
2023-11-20T04:43:33.887Z,44.30
2023-11-20T04:46:00.669Z,43.88
2023-11-20T04:48:27.167Z,45.70
2023-11-20T04:50:53.771Z,46.55
2023-11-20T04:53:22.090Z,43.00
2023-11-20T04:55:48.592Z,43.22
2023-11-20T04:58:15.100Z,43.15
2023-11-20T05:00:41.685Z,42.63
2023-11-20T05:03:08.503Z,45.53
2023-11-20T05:05:35.063Z,47.65
2023-11-20T05:08:01.772Z,46.38
2023-11-20T05:10:28.223Z,45.58
2023-11-20T05:12:55.694Z,49.15
2023-11-20T05:15:22.233Z,49.00
2023-11-20T05:17:48.761Z,48.05
2023-11-20T05:20:15.282Z,47.97
2023-11-20T05:22:41.834Z,48.85
2023-11-20T05:25:08.784Z,54.63
2023-11-20T05:27:35.296Z,50.35
2023-11-20T05:30:01.845Z,47.67
2023-11-20T05:32:28.325Z,48.25
2023-11-20T05:34:54.825Z,51.67
2023-11-20T05:37:21.442Z,49.08
2023-11-20T05:39:47.920Z,51.95
2023-11-20T05:42:14.406Z,52.45
2023-11-20T05:44:41.009Z,50.00
2023-11-20T05:47:07.560Z,50.20
2023-11-20T05:49:34.021Z,56.03
2023-11-20T05:52:00.594Z,55.20
2023-11-20T05:54:27.100Z,53.25
2023-11-20T05:56:53.578Z,53.05
2023-11-20T05:59:20.034Z,56.03
2023-11-20T06:01:46.548Z,50.95
2023-11-20T06:04:15.606Z,53.45
2023-11-20T06:06:42.196Z,49.72
2023-11-20T06:09:11.535Z,57.83
2023-11-20T06:11:38.174Z,62.55
2023-11-20T06:14:04.677Z,55.22
2023-11-20T06:16:31.314Z,57.90
2023-11-20T06:18:57.889Z,55.10
2023-11-20T06:21:24.431Z,57.20
2023-11-20T06:23:51.110Z,56.83
2023-11-20T06:26:17.661Z,49.60
2023-11-20T06:28:46.026Z,55.88
2023-11-20T06:31:12.747Z,54.70
2023-11-20T06:33:39.615Z,56.45
2023-11-20T06:36:08.022Z,60.78
2023-11-20T06:38:36.257Z,69.38
2023-11-20T06:41:03.971Z,65.30
2023-11-20T06:43:31.387Z,59.45
2023-11-20T06:45:58.411Z,64.35
2023-11-20T06:48:24.961Z,57.92
2023-11-20T06:50:51.393Z,57.85
2023-11-20T06:53:17.847Z,68.05
2023-11-20T06:55:44.309Z,56.35
2023-11-20T06:58:11.299Z,68.05
2023-11-20T07:00:40.686Z,53.78
2023-11-20T07:03:07.325Z,60.78
2023-11-20T07:05:36.173Z,62.53
2023-11-20T07:08:07.941Z,54.03
2023-11-20T07:10:34.394Z,60.05
2023-11-20T07:13:00.898Z,57.88
2023-11-20T07:15:27.364Z,57.88
2023-11-20T07:17:54.018Z,55.33
2023-11-20T07:20:21.499Z,57.28
2023-11-20T07:22:48.022Z,56.92
2023-11-20T07:25:14.634Z,55.40
2023-11-20T07:27:41.198Z,59.47
2023-11-20T07:30:08.270Z,57.40
2023-11-20T07:32:36.443Z,54.70
2023-11-20T07:35:06.668Z,56.50
2023-11-20T07:37:33.616Z,56.15
2023-11-20T07:40:08.764Z,66.10
2023-11-20T07:42:35.406Z,55.20
2023-11-20T07:45:02.016Z,60.55
2023-11-20T07:47:28.601Z,56.28
2023-11-20T07:49:55.645Z,58.13
2023-11-20T07:52:22.527Z,53.85
2023-11-20T07:54:49.065Z,59.42
2023-11-20T07:57:17.625Z,96.57
2023-11-20T07:59:44.054Z,61.67
2023-11-20T08:02:10.490Z,54.53
2023-11-20T08:04:37.162Z,57.08
2023-11-20T08:07:04.482Z,53.33
2023-11-20T08:09:31.034Z,51.67
2023-11-20T08:11:57.631Z,53.63
2023-11-20T08:14:24.424Z,54.40
2023-11-20T08:16:50.887Z,57.17
2023-11-20T08:19:17.956Z,52.72
2023-11-20T08:21:44.597Z,51.90
2023-11-20T08:24:12.912Z,49.88
2023-11-20T08:26:39.901Z,58.65
2023-11-20T08:29:07.994Z,49.92
2023-11-20T08:31:34.806Z,58.80
2023-11-20T08:34:01.433Z,54.10
2023-11-20T08:36:27.948Z,54.85
2023-11-20T08:38:54.434Z,53.75
2023-11-20T08:41:21.020Z,48.65
2023-11-20T08:43:47.561Z,49.80
2023-11-20T08:46:16.034Z,50.78
2023-11-20T08:48:43.336Z,48.78
2023-11-20T08:51:10.047Z,54.72
2023-11-20T08:53:36.901Z,52.75
2023-11-20T08:56:04.030Z,52.60
2023-11-20T08:58:30.551Z,54.28
2023-11-20T09:00:57.083Z,97.32
2023-11-20T09:03:23.683Z,99.53
2023-11-20T09:05:50.199Z,56.15
2023-11-20T09:08:16.666Z,53.83
2023-11-20T09:10:43.131Z,136.75
2023-11-20T09:13:11.199Z,118.25
2023-11-20T09:15:38.341Z,54.60
2023-11-20T09:18:05.740Z,53.25
2023-11-20T09:20:32.262Z,55.28
2023-11-20T09:22:58.805Z,49.97
2023-11-20T09:25:25.876Z,101.93
2023-11-20T09:27:52.407Z,65.72
2023-11-20T09:30:19.040Z,54.03
2023-11-20T09:32:48.180Z,53.25
2023-11-20T09:35:17.367Z,51.85
2023-11-20T09:37:44.047Z,60.85
2023-11-20T09:40:12.550Z,62.10
2023-11-20T09:42:41.077Z,53.78
2023-11-20T09:45:17.219Z,51.05
2023-11-20T09:47:47.113Z,49.30
2023-11-20T09:50:13.761Z,52.30
2023-11-20T09:52:42.773Z,49.58
2023-11-20T09:55:09.596Z,52.17
2023-11-20T09:57:36.160Z,54.33
2023-11-20T10:00:04.396Z,56.25
2023-11-20T10:02:32.256Z,52.63
2023-11-20T10:05:00.055Z,61.80
2023-11-20T10:07:32.504Z,63.97
2023-11-20T10:09:59.139Z,58.00
2023-11-20T10:12:28.002Z,57.22
2023-11-20T10:14:54.973Z,60.90
2023-11-20T10:17:23.200Z,59.15
2023-11-20T10:19:49.780Z,53.30
2023-11-20T10:22:20.899Z,55.95
2023-11-20T10:24:49.739Z,56.00
2023-11-20T10:27:18.400Z,53.63
2023-11-20T10:29:44.861Z,50.03
2023-11-20T10:32:13.099Z,54.70
2023-11-20T10:34:39.668Z,52.58
2023-11-20T10:37:10.064Z,52.30
2023-11-20T10:39:37.185Z,50.13
2023-11-20T10:42:04.996Z,53.33
2023-11-20T10:44:36.593Z,57.67
2023-11-20T10:47:06.181Z,48.55
2023-11-20T10:49:35.273Z,54.10
2023-11-20T10:52:07.262Z,50.20
2023-11-20T10:54:49.404Z,54.15
2023-11-20T10:57:19.481Z,56.15
2023-11-20T10:59:47.303Z,49.33
2023-11-20T11:02:19.979Z,55.38
2023-11-20T11:04:47.916Z,53.53
2023-11-20T11:07:17.658Z,51.40
2023-11-20T11:09:45.567Z,53.08
2023-11-20T11:12:13.305Z,50.88
2023-11-20T11:14:41.655Z,55.00
2023-11-20T11:17:14.700Z,50.90
2023-11-20T11:19:49.647Z,55.25
2023-11-20T11:22:37.163Z,51.47
2023-11-20T11:25:11.608Z,53.72
2023-11-20T11:27:43.728Z,53.00
2023-11-20T11:30:12.000Z,52.22
2023-11-20T11:33:25.997Z,50.10
2023-11-20T11:36:11.222Z,50.85
2023-11-20T11:38:53.419Z,56.67
2023-11-20T11:41:40.779Z,47.15
2023-11-20T11:44:16.165Z,50.45
2023-11-20T11:46:44.706Z,49.38
2023-11-20T11:49:18.928Z,49.13
2023-11-20T11:51:47.040Z,52.03
2023-11-20T11:54:18.147Z,50.35
2023-11-20T11:57:08.666Z,46.97
2023-11-20T11:59:43.501Z,50.63
2023-11-20T12:02:13.720Z,50.42
2023-11-20T12:04:58.663Z,49.95
2023-11-20T12:07:50.792Z,52.08
2023-11-20T12:10:43.218Z,51.30
2023-11-20T12:13:11.776Z,50.45
2023-11-20T12:15:40.958Z,46.53
2023-11-20T12:18:12.230Z,48.70
2023-11-20T12:23:39.520Z,44.13
2023-11-20T12:26:11.397Z,50.67
2023-11-20T12:28:39.427Z,49.60
2023-11-20T12:31:07.691Z,49.92
2023-11-20T12:33:36.363Z,52.60
2023-11-20T12:36:03.245Z,51.75
2023-11-20T12:38:33.595Z,50.13
2023-11-20T12:41:04.551Z,60.60
2023-11-20T12:43:32.649Z,54.50
2023-11-20T12:46:00.553Z,53.65
2023-11-20T12:48:31.047Z,54.53
2023-11-20T12:50:57.926Z,55.67
2023-11-20T12:53:24.534Z,51.63
2023-11-20T12:55:54.407Z,51.28
2023-11-20T12:58:21.472Z,58.95
2023-11-20T13:00:48.862Z,50.75
2023-11-20T13:03:20.444Z,51.85
2023-11-20T13:05:51.845Z,52.97
2023-11-20T13:10:55.701Z,52.80
2023-11-20T13:13:28.391Z,53.40
2023-11-20T13:16:00.022Z,52.63
2023-11-20T13:18:31.104Z,53.72
2023-11-20T13:20:58.014Z,59.17
2023-11-20T13:23:34.864Z,53.47
2023-11-20T13:26:09.665Z,54.78
2023-11-20T13:28:37.935Z,54.63
2023-11-20T13:31:10.009Z,50.97
2023-11-20T13:33:39.598Z,55.15
2023-11-20T13:36:06.693Z,49.85
2023-11-20T13:38:34.451Z,52.08
2023-11-20T13:41:01.929Z,52.63
2023-11-20T13:43:28.892Z,50.72
2023-11-20T13:46:00.638Z,48.92
2023-11-20T13:48:28.742Z,51.22
2023-11-20T13:50:56.320Z,50.40
2023-11-20T13:53:24.320Z,54.28
2023-11-20T13:55:52.887Z,53.28
2023-11-20T13:58:25.572Z,51.75
2023-11-20T14:00:58.804Z,51.75
2023-11-20T14:03:26.970Z,52.42
2023-11-20T14:05:54.937Z,51.45
2023-11-20T14:08:21.724Z,52.10
2023-11-20T14:10:49.481Z,53.50
2023-11-20T14:13:16.628Z,50.13
2023-11-20T14:15:43.432Z,57.22
2023-11-20T14:18:10.725Z,56.70
2023-11-20T14:20:37.413Z,52.20
2023-11-20T14:23:04.960Z,54.65
2023-11-20T14:25:34.117Z,49.38
2023-11-20T14:28:01.530Z,54.22
2023-11-20T14:30:28.193Z,54.50
2023-11-20T14:32:56.473Z,52.45
2023-11-20T14:35:23.089Z,55.20
2023-11-20T14:37:50.027Z,61.63
2023-11-20T14:40:18.508Z,55.63
2023-11-20T14:42:47.198Z,56.30
2023-11-20T14:45:15.945Z,56.00
2023-11-20T14:47:43.805Z,53.40
2023-11-20T14:50:12.528Z,56.00
2023-11-20T14:52:44.399Z,52.40
2023-11-20T14:55:11.835Z,56.83
2023-11-20T14:57:40.532Z,54.35
2023-11-20T15:00:08.480Z,55.47
2023-11-20T15:02:35.348Z,55.92
2023-11-20T15:05:01.982Z,58.63
2023-11-20T15:07:28.563Z,55.33
2023-11-20T15:09:55.088Z,57.45
2023-11-20T15:12:24.475Z,55.25
2023-11-20T15:14:52.378Z,56.72
2023-11-20T15:17:19.471Z,56.42
2023-11-20T15:19:45.960Z,58.85
2023-11-20T15:22:12.584Z,56.25
2023-11-20T15:24:39.157Z,53.47
2023-11-20T15:27:05.907Z,61.63
2023-11-20T15:29:32.853Z,62.17
2023-11-20T15:31:59.438Z,60.45
2023-11-20T15:34:26.064Z,57.55
2023-11-20T15:36:53.832Z,57.90
2023-11-20T15:39:21.139Z,61.30
2023-11-20T15:41:49.406Z,58.47
2023-11-20T15:44:17.817Z,55.90
2023-11-20T15:46:46.616Z,54.88
2023-11-20T15:49:15.417Z,61.80
2023-11-20T15:51:45.346Z,58.50
2023-11-20T15:54:17.697Z,59.78
2023-11-20T15:56:48.752Z,63.30
2023-11-20T15:59:17.439Z,57.95
2023-11-20T16:01:49.053Z,71.25
2023-11-20T16:04:16.037Z,57.65
2023-11-20T16:06:43.422Z,61.50
2023-11-20T16:09:09.903Z,61.63
2023-11-20T16:11:36.368Z,65.78
2023-11-20T16:14:03.244Z,67.00
2023-11-20T16:16:32.730Z,64.18
2023-11-20T16:18:59.295Z,73.68
2023-11-20T16:21:25.837Z,76.50
2023-11-20T16:23:52.321Z,68.05
2023-11-20T16:26:20.343Z,78.78
2023-11-20T16:28:47.601Z,84.43
2023-11-20T16:31:14.461Z,80.68
2023-11-20T16:33:41.497Z,75.38
2023-11-20T16:36:08.578Z,80.30
2023-11-20T16:38:35.046Z,71.15
2023-11-20T16:41:01.907Z,74.13
2023-11-20T16:43:29.724Z,74.57
2023-11-20T16:45:56.356Z,69.10
2023-11-20T16:48:23.614Z,71.40
2023-11-20T16:50:50.073Z,71.25
2023-11-20T16:53:16.769Z,63.22
2023-11-20T16:55:43.707Z,65.88
2023-11-20T16:58:10.320Z,70.90
2023-11-20T17:00:37.324Z,68.40
2023-11-20T17:03:04.286Z,64.82
2023-11-20T17:05:32.362Z,66.50
2023-11-20T17:07:58.950Z,64.93
2023-11-20T17:10:25.457Z,75.53
2023-11-20T17:12:51.947Z,69.15
2023-11-20T17:15:18.826Z,72.47
2023-11-20T17:17:45.360Z,65.93
2023-11-20T17:20:12.700Z,75.07
2023-11-20T17:22:39.489Z,65.28
2023-11-20T17:25:07.689Z,66.28
2023-11-20T17:27:34.274Z,68.45
2023-11-20T17:30:02.217Z,69.20
2023-11-20T17:32:29.043Z,63.78
2023-11-20T17:34:55.743Z,65.50
2023-11-20T17:37:22.370Z,66.63
2023-11-20T17:39:52.243Z,70.47
2023-11-20T17:42:18.696Z,67.00
2023-11-20T17:44:45.564Z,69.97
2023-11-20T17:47:12.249Z,59.45
2023-11-20T17:49:38.837Z,68.78
2023-11-20T17:52:05.492Z,66.95
2023-11-20T17:54:34.052Z,70.03
2023-11-20T17:57:00.630Z,66.43
2023-11-20T17:59:27.119Z,70.68
2023-11-20T18:01:53.786Z,72.15
2023-11-20T18:04:20.664Z,72.47
2023-11-20T18:06:51.149Z,71.75
2023-11-20T18:09:21.577Z,77.40
2023-11-20T18:11:50.899Z,71.67
2023-11-20T18:14:18.336Z,68.10
2023-11-20T18:16:45.394Z,67.05
2023-11-20T18:19:11.922Z,67.07
2023-11-20T18:21:46.032Z,71.45
2023-11-20T18:24:18.380Z,69.22
2023-11-20T18:26:46.024Z,69.03
2023-11-20T18:29:14.130Z,72.30
2023-11-20T18:31:40.685Z,67.72
2023-11-20T18:34:08.939Z,71.80
2023-11-20T18:36:35.512Z,78.60
2023-11-20T18:39:02.003Z,70.28
2023-11-20T18:41:31.198Z,68.93
2023-11-20T18:43:57.996Z,70.82
2023-11-20T18:46:24.578Z,66.65
2023-11-20T18:48:52.195Z,62.20
2023-11-20T18:51:18.650Z,62.83
2023-11-20T18:53:49.024Z,61.13
2023-11-20T18:56:15.508Z,65.75
2023-11-20T18:58:42.137Z,63.45
2023-11-20T19:01:08.714Z,64.05
2023-11-20T19:03:35.406Z,59.17
2023-11-20T19:06:01.916Z,62.97
2023-11-20T19:08:28.550Z,57.83
2023-11-20T19:10:56.169Z,63.10
2023-11-20T19:13:23.869Z,60.50
2023-11-20T19:15:50.571Z,60.88
2023-11-20T19:18:17.203Z,59.28
2023-11-20T19:20:43.764Z,61.88
2023-11-20T19:23:10.199Z,66.50
2023-11-20T19:25:36.828Z,60.30
2023-11-20T19:28:03.458Z,61.08
2023-11-20T19:30:29.946Z,56.92
2023-11-20T19:32:56.464Z,59.90
2023-11-20T19:35:24.031Z,56.70
2023-11-20T19:37:50.899Z,57.78
2023-11-20T19:40:19.024Z,58.92
2023-11-20T19:42:45.604Z,53.88
2023-11-20T19:45:12.196Z,67.00
2023-11-20T19:47:38.821Z,56.72
2023-11-20T19:50:07.230Z,50.28
2023-11-20T19:52:33.753Z,56.90
2023-11-20T19:55:00.255Z,59.85
2023-11-20T19:57:27.235Z,56.30
2023-11-20T19:59:53.697Z,51.83
2023-11-20T20:02:21.775Z,59.90
2023-11-20T20:04:52.650Z,54.95
2023-11-20T20:07:21.611Z,53.33
2023-11-20T20:09:48.116Z,58.90
2023-11-20T20:12:14.674Z,57.95
2023-11-20T20:14:42.466Z,55.28
2023-11-20T20:17:10.886Z,53.03
2023-11-20T20:19:44.777Z,55.08
2023-11-20T20:22:16.009Z,50.20
2023-11-20T20:24:43.197Z,52.38
2023-11-20T20:27:10.122Z,48.25
2023-11-20T20:29:37.502Z,48.47
2023-11-20T20:32:04.963Z,50.47
2023-11-20T20:34:32.128Z,49.28
2023-11-20T20:36:59.233Z,47.05
2023-11-20T20:39:26.111Z,55.63
2023-11-20T20:41:54.151Z,52.03
2023-11-20T20:44:21.005Z,52.72
2023-11-20T20:46:49.222Z,56.08
2023-11-20T20:49:16.827Z,51.38
2023-11-20T20:51:46.928Z,54.15
2023-11-20T20:54:13.997Z,55.88
2023-11-20T20:56:45.732Z,53.35
2023-11-20T20:59:14.168Z,44.10
2023-11-20T21:01:40.724Z,51.20
2023-11-20T21:04:07.295Z,52.47
2023-11-20T21:06:35.305Z,49.83
2023-11-20T21:09:01.849Z,49.67
2023-11-20T21:11:30.790Z,46.80
2023-11-20T21:13:57.363Z,54.15
2023-11-20T21:16:24.072Z,52.17
2023-11-20T21:18:50.684Z,56.70
2023-11-20T21:21:17.521Z,48.47
2023-11-20T21:23:44.243Z,47.28
2023-11-20T21:26:14.598Z,53.10
2023-11-20T21:28:41.605Z,47.17
2023-11-20T21:31:09.095Z,50.58
2023-11-20T21:33:35.880Z,51.05
2023-11-20T21:36:03.334Z,49.97
2023-11-20T21:38:30.553Z,48.25
2023-11-20T21:40:57.497Z,55.38
2023-11-20T21:43:24.410Z,56.42
2023-11-20T21:45:52.355Z,51.92
2023-11-20T21:48:19.311Z,51.83
2023-11-20T21:50:45.823Z,47.33
2023-11-20T21:53:13.138Z,53.03
2023-11-20T21:55:39.765Z,51.78
2023-11-20T21:58:06.326Z,52.67
2023-11-20T22:00:32.803Z,60.30
2023-11-20T22:02:59.327Z,53.67
2023-11-20T22:05:26.428Z,57.03
2023-11-20T22:07:53.110Z,61.38
2023-11-20T22:10:22.044Z,60.72
2023-11-20T22:12:49.299Z,60.78
2023-11-20T22:15:16.002Z,56.95
2023-11-20T22:17:42.615Z,59.78
2023-11-20T22:20:12.678Z,57.85
2023-11-20T22:22:39.600Z,66.25
2023-11-20T22:25:06.351Z,61.13
2023-11-20T22:27:33.168Z,52.58
2023-11-20T22:30:00.057Z,55.55
2023-11-20T22:32:26.759Z,53.90
2023-11-20T22:35:09.591Z,56.38
2023-11-20T22:37:39.783Z,57.50
2023-11-20T22:40:09.007Z,56.17
2023-11-20T22:42:35.752Z,59.13
2023-11-20T22:45:02.340Z,53.42
2023-11-20T22:47:28.933Z,63.97
2023-11-20T22:49:55.487Z,54.08
2023-11-20T22:52:22.022Z,55.90
2023-11-20T22:54:48.491Z,55.97
2023-11-20T22:57:14.962Z,54.15
2023-11-20T22:59:42.082Z,55.53
2023-11-20T23:02:08.690Z,54.85
2023-11-20T23:04:35.278Z,55.85
2023-11-20T23:07:01.768Z,61.15
2023-11-20T23:09:28.211Z,55.08
2023-11-20T23:11:54.750Z,54.45
2023-11-20T23:14:21.243Z,53.70
2023-11-20T23:16:47.766Z,59.38
2023-11-20T23:19:14.261Z,56.58
2023-11-20T23:21:41.120Z,59.22
2023-11-20T23:24:09.769Z,61.65
2023-11-20T23:26:36.345Z,57.75
2023-11-20T23:29:07.095Z,51.60
2023-11-20T23:31:38.200Z,53.25
2023-11-20T23:34:06.155Z,56.45
2023-11-20T23:36:33.169Z,53.38
2023-11-20T23:39:00.367Z,61.72
2023-11-20T23:41:27.488Z,54.92
2023-11-20T23:43:54.909Z,59.45
2023-11-20T23:46:21.966Z,50.90
2023-11-20T23:48:51.309Z,51.53
2023-11-20T23:51:18.043Z,53.55
2023-11-20T23:53:44.491Z,59.85
2023-11-20T23:56:10.979Z,51.92
2023-11-20T23:58:37.499Z,56.90
